createdAt,value
2022-10-25T00:00:28.986Z,24.36
2022-10-25T00:03:37.765Z,24.86
2022-10-25T00:06:43.771Z,24.62
2022-10-25T00:09:52.297Z,24.58
2022-10-25T00:12:58.611Z,23.55
2022-10-25T00:16:04.534Z,23.91
2022-10-25T00:19:12.011Z,25.23
2022-10-25T00:22:21.057Z,26.32
2022-10-25T00:25:29.377Z,25.69
2022-10-25T00:28:35.533Z,24.86
2022-10-25T00:31:42.423Z,24.64
2022-10-25T00:34:48.124Z,23.13
2022-10-25T00:37:54.556Z,23.12
2022-10-25T00:41:04.315Z,22.08
2022-10-25T00:44:53.559Z,22.38
2022-10-25T00:48:07.075Z,23.67
2022-10-25T00:51:13.376Z,24.56
2022-10-25T00:54:28.873Z,24.24
2022-10-25T00:57:46.152Z,26.01
2022-10-25T01:00:52.718Z,26.19
2022-10-25T01:04:06.081Z,27.77
2022-10-25T01:07:11.680Z,27.32
2022-10-25T01:10:17.437Z,25.26
2022-10-25T01:13:26.093Z,25.88
2022-10-25T01:16:48.774Z,25.05
2022-10-25T01:20:59.967Z,24.78
2022-10-25T01:24:52.410Z,24.34
2022-10-25T01:28:18.649Z,25.42
2022-10-25T01:31:43.852Z,24.14
2022-10-25T01:35:01.347Z,24.01
2022-10-25T01:38:45.004Z,25.07
2022-10-25T01:42:18.858Z,23.85
2022-10-25T01:45:37.208Z,23.59
2022-10-25T01:48:53.884Z,23.74
2022-10-25T01:51:59.543Z,24.57
2022-10-25T01:55:11.165Z,24.81
2022-10-25T01:58:41.544Z,25.00
2022-10-25T02:02:09.527Z,25.03
2022-10-25T02:05:30.670Z,25.04
2022-10-25T02:08:46.908Z,24.50
2022-10-25T02:11:56.471Z,24.94
2022-10-25T02:15:18.829Z,24.88
2022-10-25T02:18:33.772Z,25.10
2022-10-25T02:21:47.005Z,24.43
2022-10-25T02:24:58.240Z,23.15
2022-10-25T02:28:10.101Z,22.39
2022-10-25T02:31:22.823Z,23.55
2022-10-25T02:34:28.864Z,23.52
2022-10-25T02:37:37.100Z,25.26
2022-10-25T02:40:46.423Z,26.24
2022-10-25T02:43:52.566Z,25.90
2022-10-25T02:47:04.837Z,27.82
2022-10-25T02:50:11.567Z,30.13
2022-10-25T02:53:25.312Z,29.71
2022-10-25T02:56:31.455Z,31.43
2022-10-25T02:59:37.026Z,30.99
2022-10-25T03:02:42.599Z,30.63
2022-10-25T03:05:48.212Z,30.54
2022-10-25T03:08:56.424Z,36.43
2022-10-25T03:12:02.063Z,33.43
2022-10-25T03:15:09.745Z,28.17
2022-10-25T03:18:16.581Z,27.81
2022-10-25T03:21:22.082Z,27.37
2022-10-25T03:24:30.322Z,28.01
2022-10-25T03:27:35.886Z,28.60
2022-10-25T03:30:41.655Z,29.28
2022-10-25T03:33:48.059Z,28.38
2022-10-25T03:36:55.191Z,26.55
2022-10-25T03:40:03.561Z,26.52
2022-10-25T03:43:09.161Z,25.25
2022-10-25T03:46:16.292Z,25.91
2022-10-25T03:49:22.089Z,24.89
2022-10-25T03:52:28.214Z,24.24
2022-10-25T03:55:37.802Z,23.33
2022-10-25T03:58:43.464Z,22.69
2022-10-25T04:01:49.259Z,23.62
2022-10-25T04:04:55.278Z,25.32
2022-10-25T04:08:01.384Z,25.89
2022-10-25T04:11:09.763Z,25.13
2022-10-25T04:14:15.468Z,26.17
2022-10-25T04:17:21.255Z,26.33
2022-10-25T04:20:27.130Z,29.66
2022-10-25T04:23:32.978Z,30.85
2022-10-25T04:26:41.274Z,31.29
2022-10-25T04:29:46.852Z,31.73
2022-10-25T04:32:52.671Z,31.12
2022-10-25T04:35:59.459Z,32.16
2022-10-25T04:39:05.023Z,33.07
2022-10-25T04:42:13.330Z,32.97
2022-10-25T04:45:19.115Z,33.75
2022-10-25T04:48:25.583Z,35.50
2022-10-25T04:51:31.292Z,35.39
2022-10-25T04:54:36.854Z,33.87
2022-10-25T04:57:45.096Z,31.70
2022-10-25T05:00:50.860Z,27.75
2022-10-25T05:03:56.440Z,26.07
2022-10-25T05:07:02.255Z,26.99
2022-10-25T05:10:21.128Z,30.13
2022-10-25T05:13:29.256Z,31.10
2022-10-25T05:16:35.526Z,29.38
2022-10-25T05:19:41.141Z,30.48
2022-10-25T05:22:46.972Z,26.84
2022-10-25T05:26:03.391Z,23.59
2022-10-25T05:29:15.799Z,20.75
2022-10-25T05:32:21.419Z,20.73
2022-10-25T05:35:27.061Z,20.81
2022-10-25T05:38:36.948Z,22.22
2022-10-25T05:41:43.525Z,20.82
2022-10-25T05:44:51.803Z,22.41
2022-10-25T05:47:57.403Z,24.07
2022-10-25T05:54:42.644Z,20.85
2022-10-25T05:57:55.962Z,19.92
2022-10-25T06:01:05.500Z,18.64
2022-10-25T06:04:12.685Z,17.16
2022-10-25T06:07:18.420Z,17.01
2022-10-25T06:10:24.159Z,16.09
2022-10-25T06:13:29.746Z,15.67
2022-10-25T06:16:41.174Z,17.02
2022-10-25T06:19:46.859Z,16.61
2022-10-25T06:22:52.552Z,16.65
2022-10-25T06:26:04.081Z,16.32
2022-10-25T06:29:10.012Z,17.82
2022-10-25T06:32:18.348Z,19.48
2022-10-25T06:35:24.190Z,20.73
2022-10-25T06:38:29.936Z,19.95
2022-10-25T06:41:37.452Z,19.87
2022-10-25T06:44:43.462Z,19.41
2022-10-25T06:47:51.808Z,19.34
2022-10-25T06:51:05.717Z,18.63
2022-10-25T06:54:12.300Z,18.73
2022-10-25T06:57:18.080Z,18.82
2022-10-25T07:00:24.146Z,18.62
2022-10-25T07:03:35.366Z,18.87
2022-10-25T07:06:41.046Z,18.59
2022-10-25T07:09:47.303Z,17.86
2022-10-25T07:12:53.025Z,18.55
2022-10-25T07:16:06.144Z,17.69
2022-10-25T07:19:14.560Z,17.55
2022-10-25T07:22:20.070Z,17.94
2022-10-25T07:25:25.585Z,17.85
2022-10-25T07:28:31.280Z,18.22
2022-10-25T07:31:41.052Z,18.75
2022-10-25T07:39:26.120Z,19.34
2022-10-25T07:42:31.817Z,17.22
2022-10-25T07:45:37.612Z,16.95
2022-10-25T07:48:43.590Z,16.85
2022-10-25T07:51:49.114Z,17.75
2022-10-25T07:54:57.402Z,19.22
2022-10-25T07:58:04.626Z,20.22
2022-10-25T08:01:13.342Z,19.53
2022-10-25T08:04:19.634Z,19.52
2022-10-25T08:07:25.334Z,17.75
2022-10-25T08:10:33.997Z,17.20
2022-10-25T08:13:41.030Z,17.10
2022-10-25T08:16:46.814Z,18.24
2022-10-25T08:19:52.404Z,21.35
2022-10-25T08:23:01.120Z,25.65
2022-10-25T08:26:10.005Z,24.93
2022-10-25T08:29:15.640Z,20.49
2022-10-25T08:32:21.281Z,20.30
2022-10-25T08:35:26.912Z,19.27
2022-10-25T08:38:33.014Z,18.58
2022-10-25T08:41:54.173Z,19.51
2022-10-25T08:45:16.753Z,20.19
2022-10-25T08:48:31.142Z,21.98
2022-10-25T08:51:44.849Z,22.23
2022-10-25T08:54:53.030Z,21.91
2022-10-25T08:58:03.580Z,22.04
2022-10-25T09:01:30.172Z,21.76
2022-10-25T09:04:39.678Z,20.97
2022-10-25T09:08:28.916Z,17.97
2022-10-25T09:11:58.142Z,17.11
2022-10-25T09:15:21.614Z,17.69
2022-10-25T09:18:44.556Z,17.71
2022-10-25T09:22:00.260Z,16.28
2022-10-25T09:25:23.168Z,17.84
2022-10-25T09:28:52.391Z,19.99
2022-10-25T09:32:03.656Z,18.56
2022-10-25T09:35:19.592Z,17.08
2022-10-25T09:38:32.581Z,17.99
2022-10-25T09:41:46.322Z,18.53
2022-10-25T09:45:00.213Z,17.68
2022-10-25T09:48:25.788Z,17.27
2022-10-25T09:51:46.780Z,16.34
2022-10-25T09:54:57.890Z,16.52
2022-10-25T09:58:05.293Z,15.38
2022-10-25T10:01:20.140Z,15.05
2022-10-25T10:04:39.655Z,16.00
2022-10-25T10:07:48.018Z,16.10
2022-10-25T10:10:57.330Z,18.13
2022-10-25T10:14:13.691Z,17.75
2022-10-25T10:17:26.027Z,17.83
2022-10-25T10:20:35.106Z,18.88
2022-10-25T10:23:54.628Z,19.81
2022-10-25T10:27:04.809Z,20.30
2022-10-25T10:30:24.936Z,20.55
2022-10-25T10:33:36.160Z,18.93
2022-10-25T10:36:47.671Z,18.10
2022-10-25T10:39:56.716Z,16.16
2022-10-25T10:43:04.900Z,15.14
2022-10-25T10:46:20.105Z,14.04
2022-10-25T10:49:40.397Z,12.10
2022-10-25T10:52:54.021Z,12.02
2022-10-25T10:56:17.354Z,12.46
2022-10-25T10:59:47.648Z,12.48
2022-10-25T11:02:54.362Z,12.46
2022-10-25T11:06:07.764Z,12.83
2022-10-25T11:09:27.785Z,13.74
2022-10-25T11:12:36.529Z,13.71
2022-10-25T11:16:24.426Z,13.52
2022-10-25T11:20:21.585Z,12.01
2022-10-25T11:23:46.504Z,12.81
2022-10-25T11:27:13.917Z,12.88
2022-10-25T11:30:24.126Z,12.62
2022-10-25T11:33:55.941Z,12.46
2022-10-25T11:37:22.977Z,13.00
2022-10-25T11:40:35.711Z,12.87
2022-10-25T11:44:21.269Z,12.91
2022-10-25T11:47:46.176Z,13.10
2022-10-25T11:51:05.762Z,12.05
2022-10-25T11:54:32.973Z,11.55
2022-10-25T11:57:58.607Z,11.24
2022-10-25T12:01:28.622Z,10.92
2022-10-25T12:04:59.955Z,11.33
2022-10-25T12:08:29.297Z,10.96
2022-10-25T12:11:45.088Z,10.28
2022-10-25T12:14:59.715Z,10.52
2022-10-25T12:18:27.944Z,9.62
2022-10-25T12:21:49.378Z,8.86
2022-10-25T12:25:08.031Z,9.53
2022-10-25T12:28:28.088Z,10.86
2022-10-25T12:31:43.654Z,9.50
2022-10-25T12:34:57.200Z,8.99
2022-10-25T12:38:14.563Z,9.07
2022-10-25T12:41:30.391Z,8.99
2022-10-25T12:45:17.132Z,9.12
2022-10-25T12:49:03.667Z,8.86
2022-10-25T12:52:34.967Z,10.01
2022-10-25T12:56:04.554Z,15.06
2022-10-25T12:59:32.948Z,17.78
2022-10-25T13:03:31.547Z,19.22
2022-10-25T13:06:41.737Z,24.62
2022-10-25T13:09:51.411Z,17.14
2022-10-25T13:13:05.386Z,18.51
2022-10-25T13:16:14.117Z,16.88
2022-10-25T13:20:00.937Z,13.78
2022-10-25T13:22:56.769Z,11.06
2022-10-25T13:26:12.472Z,10.12
2022-10-25T13:29:51.376Z,9.51
2022-10-25T13:33:33.746Z,9.99
2022-10-25T13:36:53.992Z,12.56
2022-10-25T13:40:03.118Z,11.30
2022-10-25T13:43:24.377Z,10.18
2022-10-25T13:46:37.755Z,9.81
2022-10-25T13:49:51.103Z,10.05
2022-10-25T13:53:06.309Z,10.97
2022-10-25T13:56:19.353Z,11.05
2022-10-25T14:00:03.484Z,9.88
2022-10-25T14:03:37.665Z,21.20
2022-10-25T14:06:44.882Z,20.62
2022-10-25T14:09:57.143Z,11.46
2022-10-25T14:13:19.819Z,12.08
2022-10-25T14:16:35.144Z,14.62
2022-10-25T14:19:48.287Z,16.35
2022-10-25T14:23:00.775Z,16.39
2022-10-25T14:26:15.678Z,15.75
2022-10-25T14:29:25.163Z,15.35
2022-10-25T14:32:33.457Z,14.70
2022-10-25T14:35:49.843Z,16.12
2022-10-25T14:38:58.445Z,16.78
2022-10-25T14:42:06.710Z,11.17
2022-10-25T14:45:25.152Z,11.32
2022-10-25T14:48:34.612Z,12.27
2022-10-25T14:51:46.176Z,16.55
2022-10-25T14:55:02.859Z,19.27
2022-10-25T14:58:14.569Z,14.20
2022-10-25T15:01:25.314Z,13.36
2022-10-25T15:04:40.901Z,12.12
2022-10-25T15:07:51.553Z,16.45
2022-10-25T15:11:10.302Z,18.53
2022-10-25T15:14:24.916Z,18.42
2022-10-25T15:17:33.897Z,15.39
2022-10-25T15:20:42.340Z,14.53
2022-10-25T15:24:16.016Z,15.21
2022-10-25T15:27:36.794Z,15.56
2022-10-25T15:31:00.515Z,14.04
2022-10-25T15:34:08.959Z,14.90
2022-10-25T15:37:21.053Z,12.89
2022-10-25T15:40:26.866Z,13.17
2022-10-25T15:43:32.845Z,14.63
2022-10-25T15:46:38.828Z,15.57
2022-10-25T15:49:44.567Z,14.01
2022-10-25T15:52:52.844Z,15.00
2022-10-25T15:55:58.509Z,13.88
2022-10-25T15:59:04.520Z,13.36
2022-10-25T16:02:22.995Z,13.24
2022-10-25T16:05:32.388Z,13.97
2022-10-25T16:08:40.595Z,13.11
2022-10-25T16:11:57.079Z,12.85
2022-10-25T16:15:05.229Z,11.67
2022-10-25T16:18:19.155Z,12.01
2022-10-25T16:21:26.733Z,12.45
2022-10-25T16:24:35.005Z,12.07
2022-10-25T16:27:41.368Z,12.18
2022-10-25T16:30:47.109Z,13.56
2022-10-25T16:33:52.812Z,18.02
2022-10-25T16:36:58.577Z,20.43
2022-10-25T16:40:09.211Z,19.12
2022-10-25T16:43:17.129Z,18.88
2022-10-25T16:46:22.709Z,17.10
2022-10-25T16:49:28.629Z,16.88
2022-10-25T16:52:34.415Z,16.14
2022-10-25T16:55:45.865Z,15.51
2022-10-25T16:58:51.585Z,15.01
2022-10-25T17:02:02.135Z,15.14
2022-10-25T17:05:24.939Z,18.77
2022-10-25T17:08:30.514Z,45.25
2022-10-25T17:11:45.680Z,53.01
2022-10-25T17:14:53.389Z,43.37
2022-10-25T17:18:01.483Z,36.58
2022-10-25T17:21:19.276Z,33.73
2022-10-25T17:24:27.136Z,34.89
2022-10-25T17:27:54.237Z,37.53
2022-10-25T17:31:19.621Z,39.54
2022-10-25T17:34:25.858Z,44.91
2022-10-25T17:37:32.167Z,55.16
2022-10-25T17:40:49.664Z,50.51
2022-10-25T17:44:00.987Z,51.53
2022-10-25T17:47:06.883Z,50.61
2022-10-25T17:50:17.437Z,54.41
2022-10-25T17:53:26.103Z,51.95
2022-10-25T18:00:00.322Z,53.41
2022-10-25T18:03:17.888Z,47.31
2022-10-25T18:06:26.771Z,49.93
2022-10-25T18:09:32.359Z,46.08
2022-10-25T18:12:37.999Z,46.22
2022-10-25T18:15:49.670Z,49.13
2022-10-25T18:18:55.865Z,51.07
2022-10-25T18:22:04.906Z,51.79
2022-10-25T18:25:13.982Z,47.53
2022-10-25T18:28:19.745Z,45.74
2022-10-25T18:31:31.445Z,44.53
2022-10-25T18:34:37.063Z,41.46
2022-10-25T18:37:54.100Z,37.80
2022-10-25T18:41:00.821Z,40.94
2022-10-25T18:44:15.379Z,40.72
2022-10-25T18:47:23.948Z,39.71
2022-10-25T18:50:29.719Z,40.44
2022-10-25T18:53:36.406Z,39.94
2022-10-25T18:56:42.433Z,41.67
2022-10-25T18:59:48.203Z,39.77
2022-10-25T19:02:57.415Z,37.50
2022-10-25T19:06:03.181Z,37.24
2022-10-25T19:09:11.922Z,34.17
2022-10-25T19:12:20.584Z,33.14
2022-10-25T19:15:26.356Z,29.80
2022-10-25T19:18:36.571Z,28.60
2022-10-25T19:21:46.270Z,30.47
2022-10-25T19:24:52.072Z,30.76
2022-10-25T19:28:02.168Z,33.99
2022-10-25T19:31:12.095Z,34.80
2022-10-25T19:34:20.978Z,37.81
2022-10-25T19:37:26.963Z,36.57
2022-10-25T19:40:32.866Z,37.11
2022-10-25T19:43:39.245Z,36.89
2022-10-25T19:46:45.235Z,34.87
2022-10-25T19:49:53.573Z,36.18
2022-10-25T19:52:59.218Z,34.45
2022-10-25T19:56:07.839Z,34.54
2022-10-25T19:59:15.361Z,40.27
2022-10-25T20:02:21.227Z,44.23
2022-10-25T20:05:29.878Z,46.19
2022-10-25T20:08:37.903Z,43.54
2022-10-25T20:11:43.627Z,42.75
2022-10-25T20:14:49.192Z,44.39
2022-10-25T20:17:54.842Z,44.92
2022-10-25T20:21:07.547Z,55.31
2022-10-25T20:24:14.263Z,56.32
2022-10-25T20:27:19.997Z,56.08
2022-10-25T20:30:25.955Z,49.17
2022-10-25T20:33:31.937Z,47.92
2022-10-25T20:36:41.550Z,46.84
2022-10-25T20:39:47.741Z,47.05
2022-10-25T20:42:53.761Z,42.17
2022-10-25T20:45:59.766Z,42.21
2022-10-25T20:49:07.602Z,46.49
2022-10-25T20:52:17.407Z,42.12
2022-10-25T20:55:24.011Z,38.60
2022-10-25T20:58:30.205Z,43.29
2022-10-25T21:01:36.196Z,49.93
2022-10-25T21:04:53.047Z,49.61
2022-10-25T21:08:02.699Z,50.44
2022-10-25T21:11:13.350Z,46.97
2022-10-25T21:14:19.121Z,45.42
2022-10-25T21:17:25.501Z,43.74
2022-10-25T21:20:32.823Z,37.87
2022-10-25T21:23:41.244Z,39.18
2022-10-25T21:26:47.832Z,39.11
2022-10-25T21:29:53.639Z,35.82
2022-10-25T21:32:59.285Z,35.27
2022-10-25T21:36:12.507Z,32.38
2022-10-25T21:39:24.220Z,31.86
2022-10-25T21:42:40.257Z,31.20
2022-10-25T21:45:45.904Z,31.16
2022-10-25T21:48:53.370Z,28.84
2022-10-25T21:51:59.306Z,28.87
2022-10-25T21:55:08.770Z,29.27
2022-10-25T21:58:14.361Z,28.45
2022-10-25T22:01:29.612Z,28.67
2022-10-25T22:04:35.373Z,28.90
2022-10-25T22:07:40.956Z,28.11
2022-10-25T22:14:09.306Z,30.42
2022-10-25T22:17:15.099Z,29.57
2022-10-25T22:20:20.791Z,28.23
2022-10-25T22:23:28.811Z,27.62
2022-10-25T22:26:38.471Z,27.37
2022-10-25T22:29:44.091Z,26.55
2022-10-25T22:32:50.064Z,25.87
2022-10-25T22:36:17.450Z,25.19
2022-10-25T22:39:23.114Z,24.01
2022-10-25T22:42:31.310Z,22.32
2022-10-25T22:45:38.177Z,22.07
2022-10-25T22:48:46.820Z,22.96
2022-10-25T22:51:52.479Z,23.13
2022-10-25T22:55:00.534Z,22.55
2022-10-25T22:58:10.143Z,21.12
2022-10-25T23:01:24.473Z,20.84
2022-10-25T23:04:30.220Z,19.80
2022-10-25T23:07:35.865Z,17.92
2022-10-25T23:10:41.512Z,17.38
2022-10-25T23:13:50.455Z,16.41
2022-10-25T23:16:55.996Z,16.58
2022-10-25T23:20:05.059Z,16.75
2022-10-25T23:23:10.693Z,16.71
2022-10-25T23:26:22.902Z,16.61
2022-10-25T23:29:31.087Z,17.50
2022-10-25T23:32:36.686Z,20.43
2022-10-25T23:35:44.813Z,19.20
2022-10-25T23:38:51.939Z,17.93
2022-10-25T23:41:57.617Z,16.43
2022-10-25T23:45:10.569Z,16.54
2022-10-25T23:48:21.307Z,16.57
2022-10-25T23:51:26.924Z,16.13
2022-10-25T23:54:34.187Z,16.90
2022-10-25T23:57:40.069Z,17.04
